Time;durP1;ratioP1;P1;durP2;ratioP2;P2;SDS_P1;SDS_P2;PMS_P1;PMS_P2;Temp;Humidity;BMP_temperature;BMP_pressure;BME280_temperature;BME280_humidity;BME280_pressure;Samples;Min_cycle;Max_cycle;Signal;HPM_P1;HPM_P2
2021/11/18 00:00:36;;;;;;;19.90;15.38;;;;;;;5.68;70.94;97136.19;5094039;28;20016;-66
2021/11/18 00:03:03;;;;;;;23.42;15.43;;;;;;;5.60;70.74;97132.81;5093914;28;20106;-65
2021/11/18 00:05:31;;;;;;;26.90;15.65;;;;;;;5.63;71.65;97133.63;5093679;28;20031;-65
2021/11/18 00:07:57;;;;;;;22.23;14.73;;;;;;;5.62;71.21;97131.91;5093861;28;20032;-67
2021/11/18 00:10:29;;;;;;;22.95;15.05;;;;;;;5.63;70.96;97131.03;5093746;28;20408;-63
2021/11/18 00:12:56;;;;;;;20.83;15.27;;;;;;;5.60;70.97;97132.81;5093838;28;20035;-67
2021/11/18 00:15:25;;;;;;;22.40;15.52;;;;;;;5.57;71.14;97137.13;5093654;28;20043;-67
2021/11/18 00:17:55;;;;;;;24.45;17.77;;;;;;;5.60;71.19;97138.84;5093564;28;20032;-67
2021/11/18 00:20:20;;;;;;;24.08;16.35;;;;;;;5.61;71.59;97124.13;5093476;28;20131;-64
2021/11/18 00:22:46;;;;;;;26.88;16.98;;;;;;;5.63;71.74;97130.19;5093522;28;20107;-63
2021/11/18 00:25:14;;;;;;;21.85;15.63;;;;;;;5.64;72.04;97142.28;5093556;28;20470;-67
2021/11/18 00:27:40;;;;;;;21.15;14.23;;;;;;;5.62;71.68;97142.28;5093468;28;20016;-64
2021/11/18 00:30:09;;;;;;;23.15;15.25;;;;;;;5.57;71.67;97139.72;5093513;28;20085;-68
2021/11/18 00:32:38;;;;;;;22.30;14.88;;;;;;;5.56;71.69;97137.16;5093489;28;20103;-63
2021/11/18 00:35:07;;;;;;;24.60;15.75;;;;;;;5.57;72.39;97131.94;5093395;28;20064;-64
2021/11/18 00:37:33;;;;;;;20.63;14.55;;;;;;;5.56;71.87;97129.38;5093388;28;20047;-65
2021/11/18 00:39:59;;;;;;;22.08;14.93;;;;;;;5.57;72.11;97137.13;5093269;28;20023;-68
2021/11/18 00:42:24;;;;;;;24.05;15.85;;;;;;;5.59;72.08;97137.13;5093371;28;20473;-66
2021/11/18 00:44:52;;;;;;;20.65;15.30;;;;;;;5.61;72.55;97139.72;5093148;28;20493;-63
2021/11/18 00:47:18;;;;;;;22.45;14.23;;;;;;;5.59;72.48;97138.84;5093241;28;20386;-63
2021/11/18 00:49:43;;;;;;;19.80;13.85;;;;;;;5.62;72.31;97141.41;5093235;28;20024;-68
2021/11/18 00:52:09;;;;;;;18.30;14.13;;;;;;;5.65;72.38;97138.81;5093244;28;20017;-61
2021/11/18 00:54:34;;;;;;;19.17;14.15;;;;;;;5.67;72.39;97139.66;5093126;28;20058;-64
2021/11/18 00:57:00;;;;;;;22.55;14.98;;;;;;;5.67;72.50;97135.34;5094075;28;20048;-66
2021/11/18 00:59:26;;;;;;;19.50;14.18;;;;;;;5.71;72.21;97138.75;5097352;28;20089;-65
2021/11/18 01:01:52;;;;;;;21.98;14.20;;;;;;;5.73;71.93;97142.22;5097346;28;20024;-65
2021/11/18 01:04:19;;;;;;;22.05;14.32;;;;;;;5.76;72.46;97136.13;5097307;28;20020;-65
2021/11/18 01:06:47;;;;;;;21.23;14.75;;;;;;;5.78;72.75;97139.56;5097151;28;20028;-66
2021/11/18 01:09:13;;;;;;;20.17;14.05;;;;;;;5.80;72.28;97130.88;5097307;28;20024;-66
2021/11/18 01:11:39;;;;;;;22.25;14.15;;;;;;;5.80;72.30;97133.50;5097230;28;20020;-64
2021/11/18 01:14:08;;;;;;;18.50;13.48;;;;;;;5.77;72.15;97130.91;5097159;28;20024;-67
2021/11/18 01:16:36;;;;;;;19.58;13.77;;;;;;;5.75;72.40;97132.66;5096973;28;20022;-65
2021/11/18 01:19:05;;;;;;;22.50;13.88;;;;;;;5.73;72.32;97131.81;5096761;28;20127;-68
2021/11/18 01:21:30;;;;;;;18.95;13.45;;;;;;;5.78;72.84;97130.03;5097020;28;20099;-65
2021/11/18 01:23:56;;;;;;;21.02;14.60;;;;;;;5.77;72.77;97127.44;5096982;28;20454;-67
2021/11/18 01:26:22;;;;;;;19.50;13.93;;;;;;;5.77;72.46;97117.94;5096806;28;20107;-65
2021/11/18 01:28:48;;;;;;;18.20;13.13;;;;;;;5.79;72.38;97118.78;5096899;28;20085;-64
2021/11/18 01:31:15;;;;;;;22.05;12.73;;;;;;;5.80;72.04;97124.81;5096868;28;20020;-63
2021/11/18 01:33:42;;;;;;;19.63;13.27;;;;;;;5.82;72.06;97128.28;5096874;28;20030;-65
2021/11/18 01:36:09;;;;;;;23.05;14.38;;;;;;;5.80;72.83;97117.03;5095472;28;20019;-66
2021/11/18 01:38:35;;;;;;;22.33;14.45;;;;;;;5.80;72.28;97110.13;5096682;28;20066;-68
2021/11/18 01:41:06;;;;;;;23.20;14.93;;;;;;;5.79;72.41;97103.22;5096583;28;20032;-65
2021/11/18 01:43:37;;;;;;;20.35;14.05;;;;;;;5.78;72.04;97108.41;5096680;28;20028;-65
2021/11/18 01:46:06;;;;;;;23.20;14.13;;;;;;;5.77;72.08;97111.88;5096613;28;20028;-64
2021/11/18 01:48:32;;;;;;;17.65;13.00;;;;;;;5.75;72.20;97113.63;5096525;28;20024;-67
2021/11/18 01:50:57;;;;;;;19.10;13.25;;;;;;;5.73;72.54;97111.06;5095230;28;20027;-62
2021/11/18 01:53:28;;;;;;;23.90;14.23;;;;;;;5.76;72.69;97110.16;5096243;28;20017;-67
2021/11/18 01:55:54;;;;;;;19.92;14.00;;;;;;;5.79;73.11;97111.00;5096298;28;20125;-64
2021/11/18 01:58:22;;;;;;;18.52;14.38;;;;;;;5.81;73.10;97108.38;5096400;28;20478;-64
2021/11/18 02:00:59;;;;;;;19.90;13.55;;;;;;;5.83;73.03;97106.63;5096401;28;20054;-63
2021/11/18 02:03:25;;;;;;;19.33;15.32;;;;;;;5.86;73.09;97111.78;5096199;28;20107;-68
2021/11/18 02:06:13;;;;;;;21.02;14.00;;;;;;;5.89;73.21;97111.75;5094834;28;20373;-65
2021/11/18 02:08:39;;;;;;;18.83;13.57;;;;;;;5.91;72.95;97117.81;5095863;28;20482;-67
2021/11/18 02:11:12;;;;;;;17.65;13.15;;;;;;;5.92;72.71;97116.06;5096088;28;20099;-66
2021/11/18 02:13:38;;;;;;;14.57;11.88;;;;;;;5.92;72.18;97109.13;5096057;28;20107;-65
2021/11/18 02:16:12;;;;;;;17.30;12.15;;;;;;;5.87;71.72;97121.28;5095883;28;20107;-63
2021/11/18 02:18:37;;;;;;;15.20;11.98;;;;;;;5.86;71.23;97118.69;5095613;28;20024;-62
2021/11/18 02:21:07;;;;;;;18.23;11.70;;;;;;;5.90;71.34;97126.47;5095973;28;20069;-61
2021/11/18 02:23:38;;;;;;;21.53;14.13;;;;;;;5.92;72.03;97126.44;5095831;28;20090;-66
2021/11/18 02:26:04;;;;;;;22.30;13.43;;;;;;;5.91;72.21;97125.59;5095829;28;20292;-67
2021/11/18 02:28:33;;;;;;;17.60;13.35;;;;;;;5.90;72.38;97128.22;5095642;28;20036;-66
2021/11/18 02:31:01;;;;;;;19.52;12.93;;;;;;;5.91;72.29;97127.31;5095674;28;20103;-65
2021/11/18 02:33:27;;;;;;;16.52;12.45;;;;;;;5.92;72.66;97121.25;5095552;28;20024;-63
2021/11/18 02:35:56;;;;;;;18.55;13.05;;;;;;;5.94;72.64;97120.34;5095592;28;20107;-64
2021/11/18 02:38:22;;;;;;;17.65;13.00;;;;;;;5.96;72.77;97120.34;5095538;28;20044;-66
2021/11/18 02:40:48;;;;;;;15.77;12.13;;;;;;;5.94;72.73;97112.56;5095469;28;20063;-65
2021/11/18 02:43:17;;;;;;;18.65;12.50;;;;;;;5.96;72.55;97120.34;5095433;28;20107;-67
2021/11/18 02:45:47;;;;;;;18.55;12.85;;;;;;;5.95;72.83;97121.22;5095340;28;20032;-64
2021/11/18 02:48:14;;;;;;;15.00;12.73;;;;;;;5.94;72.75;97112.56;5095421;28;20509;-63
2021/11/18 02:50:41;;;;;;;15.80;12.05;;;;;;;5.92;72.67;97113.47;5095278;28;20056;-65
2021/11/18 02:53:08;;;;;;;13.77;11.77;;;;;;;5.88;72.27;97107.44;5095159;28;20016;-67
2021/11/18 02:55:40;;;;;;;14.77;11.82;;;;;;;5.83;71.83;97114.41;5095164;28;20024;-68
2021/11/18 02:58:06;;;;;;;16.17;12.15;;;;;;;5.79;71.42;97121.38;5095126;28;20020;-65
2021/11/18 03:00:55;;;;;;;15.13;12.63;;;;;;;5.83;71.86;97127.41;5095163;28;20024;-64
2021/11/18 03:03:24;;;;;;;18.50;12.48;;;;;;;5.86;71.69;97129.97;5094965;28;20078;-65
2021/11/18 03:05:50;;;;;;;14.98;12.07;;;;;;;5.84;72.92;97129.09;5094810;28;20036;-65
2021/11/18 03:08:16;;;;;;;14.18;11.80;;;;;;;5.91;72.98;97132.53;5094947;28;20020;-63
2021/11/18 03:10:42;;;;;;;13.68;10.75;;;;;;;5.93;72.94;97133.38;5094926;28;20473;-64
2021/11/18 03:13:08;;;;;;;12.70;11.02;;;;;;;5.92;73.16;97135.09;5094883;28;20024;-63
2021/11/18 03:15:34;;;;;;;13.85;11.77;;;;;;;5.92;72.54;97132.50;5094622;28;20362;-62
2021/11/18 03:18:00;;;;;;;16.50;11.82;;;;;;;5.92;72.14;97134.22;5094645;28;20115;-65
2021/11/18 03:20:28;;;;;;;16.90;11.70;;;;;;;5.89;72.25;97134.25;5093834;28;20055;-64
2021/11/18 03:22:55;;;;;;;15.32;12.52;;;;;;;5.90;72.40;97134.25;5094713;28;20355;-63
2021/11/18 03:25:26;;;;;;;11.77;10.32;;;;;;;5.90;72.23;97138.59;5094614;28;20017;-67
2021/11/18 03:27:52;;;;;;;12.60;9.98;;;;;;;5.86;71.73;97132.56;5094690;28;20053;-66
2021/11/18 03:30:23;;;;;;;15.35;10.80;;;;;;;5.88;71.70;97132.56;5094459;28;20024;-65
2021/11/18 03:32:54;;;;;;;15.13;11.40;;;;;;;5.90;72.47;97131.66;5094494;28;20028;-66
2021/11/18 03:35:22;;;;;;;15.55;11.82;;;;;;;5.91;72.86;97132.53;5094375;28;20382;-66
2021/11/18 03:37:47;;;;;;;17.10;11.90;;;;;;;5.88;72.50;97133.41;5094412;28;20024;-64
2021/11/18 03:40:14;;;;;;;14.60;11.63;;;;;;;5.90;72.15;97134.25;5094293;28;20016;-65
2021/11/18 03:42:40;;;;;;;16.05;11.30;;;;;;;5.80;72.55;97127.41;5094239;28;20024;-65
2021/11/18 03:45:08;;;;;;;11.70;10.13;;;;;;;5.76;72.69;97129.19;5094145;28;20035;-62
2021/11/18 03:47:33;;;;;;;13.00;11.15;;;;;;;5.79;72.56;97128.31;5094129;28;20505;-66
2021/11/18 03:49:59;;;;;;;12.80;10.73;;;;;;;5.78;72.15;97121.41;5094153;28;20020;-66
2021/11/18 03:52:24;;;;;;;12.73;10.88;;;;;;;5.78;72.34;97121.41;5094174;28;20533;-66
2021/11/18 03:54:50;;;;;;;12.93;11.25;;;;;;;5.78;72.40;97117.03;5093970;28;20031;-66
2021/11/18 03:57:16;;;;;;;13.45;11.20;;;;;;;5.78;72.79;97118.81;5094041;28;20108;-66
2021/11/18 03:59:44;;;;;;;16.25;11.13;;;;;;;5.82;72.93;97113.53;5093956;28;20024;-67
2021/11/18 04:02:10;;;;;;;12.48;10.68;;;;;;;5.81;72.48;97109.22;5092722;28;20173;-65
2021/11/18 04:04:48;;;;;;;13.55;10.45;;;;;;;5.81;72.72;97111.00;5093829;28;20362;-65
2021/11/18 04:07:15;;;;;;;16.63;10.85;;;;;;;5.80;72.73;97114.44;5093712;28;20056;-65
2021/11/18 04:09:42;;;;;;;13.43;10.40;;;;;;;5.84;72.85;97112.69;5093861;28;20020;-66
2021/11/18 04:12:09;;;;;;;16.80;11.57;;;;;;;5.86;72.84;97119.56;5093827;28;20016;-67
2021/11/18 04:14:37;;;;;;;13.18;11.30;;;;;;;5.88;72.64;97122.16;5093800;28;20020;-66
2021/11/18 04:17:04;;;;;;;12.25;10.35;;;;;;;5.86;72.96;97123.91;5093637;28;20024;-65
2021/11/18 04:19:30;;;;;;;14.65;10.65;;;;;;;5.86;72.82;97118.69;5093430;28;20114;-64
2021/11/18 04:21:56;;;;;;;13.90;11.18;;;;;;;5.89;72.38;97123.88;5093584;28;20028;-65
2021/11/18 04:24:26;;;;;;;15.70;11.35;;;;;;;5.90;72.51;97129.06;5093643;28;20141;-63
2021/11/18 04:26:52;;;;;;;13.68;10.77;;;;;;;5.90;73.45;97131.66;5093485;28;20046;-65
2021/11/18 04:29:27;;;;;;;11.95;10.15;;;;;;;5.93;73.20;97123.81;5093398;28;20027;-67
2021/11/18 04:31:59;;;;;;;11.82;10.60;;;;;;;5.96;73.02;97122.09;5093358;28;20031;-64
2021/11/18 04:34:25;;;;;;;13.57;10.80;;;;;;;5.88;72.81;97127.34;5093506;28;20028;-64
2021/11/18 04:36:51;;;;;;;13.07;9.85;;;;;;;5.78;72.79;97130.03;5093432;28;20020;-66
2021/11/18 04:39:16;;;;;;;14.20;9.63;;;;;;;5.77;72.76;97140.44;5093484;28;20107;-63
2021/11/18 04:41:42;;;;;;;14.63;11.25;;;;;;;5.75;72.83;97130.06;5093243;28;20466;-65
2021/11/18 04:44:08;;;;;;;15.25;10.57;;;;;;;5.78;73.06;97132.63;5093214;28;20028;-65
2021/11/18 04:46:35;;;;;;;16.20;11.40;;;;;;;5.75;73.17;97135.25;5093195;28;20039;-64
2021/11/18 04:49:01;;;;;;;12.02;10.52;;;;;;;5.69;72.83;97140.53;5093399;28;20032;-63
2021/11/18 04:51:27;;;;;;;12.80;10.68;;;;;;;5.71;73.32;97140.47;5093267;28;20024;-65
2021/11/18 04:53:53;;;;;;;12.65;9.90;;;;;;;5.72;73.00;97135.28;5093166;28;20028;-63
2021/11/18 04:56:19;;;;;;;12.30;10.55;;;;;;;5.67;72.90;97127.56;5093338;28;20099;-66
2021/11/18 04:58:45;;;;;;;12.85;10.90;;;;;;;5.64;72.35;97126.72;5093181;28;20150;-66
2021/11/18 05:01:13;;;;;;;12.50;10.27;;;;;;;5.57;72.36;97133.69;5093278;28;20024;-65
2021/11/18 05:03:40;;;;;;;11.90;9.73;;;;;;;5.50;71.94;97127.69;5093135;28;20020;-62
2021/11/18 05:06:07;;;;;;;12.50;10.52;;;;;;;5.45;71.58;97126.88;5093062;28;20024;-66
2021/11/18 05:08:33;;;;;;;12.48;9.13;;;;;;;5.35;71.16;97120.00;5092966;28;20377;-68
2021/11/18 05:10:59;;;;;;;10.60;9.50;;;;;;;5.28;70.95;97130.47;5093037;28;20024;-63
2021/11/18 05:13:27;;;;;;;13.32;9.55;;;;;;;5.13;70.97;97134.03;5093056;28;20524;-66
2021/11/18 05:15:55;;;;;;;11.98;9.77;;;;;;;4.93;70.79;97134.13;5093028;28;20115;-66
2021/11/18 05:18:22;;;;;;;11.02;8.98;;;;;;;4.87;71.10;97148.00;5092924;28;20020;-64
2021/11/18 05:20:47;;;;;;;16.17;10.27;;;;;;;4.78;70.98;97145.44;5092705;28;20044;-66
2021/11/18 05:23:15;;;;;;;11.02;9.43;;;;;;;4.64;71.26;97150.72;5092893;28;20031;-65
2021/11/18 05:25:41;;;;;;;11.63;9.55;;;;;;;4.54;71.42;97157.66;5092965;28;20031;-63
2021/11/18 05:28:07;;;;;;;10.63;9.48;;;;;;;4.43;71.54;97150.78;5093040;28;20047;-67
2021/11/18 05:30:34;;;;;;;11.38;9.68;;;;;;;4.36;71.59;97164.63;5092772;28;20398;-64
2021/11/18 05:33:04;;;;;;;13.48;10.35;;;;;;;4.26;71.58;97168.97;5092740;28;20050;-65
2021/11/18 05:35:32;;;;;;;13.27;9.23;;;;;;;4.25;71.65;97171.56;5092867;28;20082;-66
2021/11/18 05:37:58;;;;;;;11.50;9.13;;;;;;;4.25;71.99;97177.59;5092848;28;20067;-65
2021/11/18 05:40:24;;;;;;;14.55;9.05;;;;;;;4.30;71.81;97177.59;5092721;28;20073;-65
2021/11/18 05:42:50;;;;;;;10.32;8.60;;;;;;;4.37;71.52;97175.88;5093336;28;20027;-67
2021/11/18 05:45:20;;;;;;;11.85;9.52;;;;;;;4.43;71.58;97181.88;5096433;28;20024;-64
2021/11/18 05:47:46;;;;;;;12.68;9.30;;;;;;;4.55;71.86;97186.16;5096568;28;20048;-63
2021/11/18 05:50:14;;;;;;;12.40;9.02;;;;;;;4.63;71.38;97188.72;5096585;28;20028;-66
2021/11/18 05:52:40;;;;;;;13.55;8.98;;;;;;;4.80;71.08;97177.41;5096466;28;20024;-67
2021/11/18 05:55:07;;;;;;;11.15;8.93;;;;;;;5.26;70.53;97188.41;5096409;28;20020;-62
2021/11/18 05:57:33;;;;;;;9.02;8.07;;;;;;;5.83;68.37;97181.91;5096345;28;20115;-66
2021/11/18 05:59:59;;;;;;;9.35;8.10;;;;;;;6.56;66.17;97189.03;5096352;28;20047;-67
2021/11/18 06:02:26;;;;;;;8.23;7.30;;;;;;;7.32;64.64;97187.16;5096216;28;20024;-66
2021/11/18 06:04:52;;;;;;;8.77;6.55;;;;;;;8.05;61.74;97182.56;5096182;28;20534;-67
2021/11/18 06:07:17;;;;;;;6.40;5.63;;;;;;;8.79;59.89;97189.88;5095983;28;20059;-64
2021/11/18 06:09:43;;;;;;;5.90;5.38;;;;;;;9.54;57.12;97193.50;5096240;28;20454;-64
2021/11/18 06:12:11;;;;;;;6.50;5.70;;;;;;;10.25;55.22;97197.88;5096019;28;20154;-63
2021/11/18 06:14:37;;;;;;;6.10;5.50;;;;;;;10.82;53.53;97200.72;5095991;28;20509;-62
2021/11/18 06:17:03;;;;;;;7.05;4.38;;;;;;;11.44;51.45;97199.81;5096071;28;20028;-63
2021/11/18 06:19:29;;;;;;;5.30;4.70;;;;;;;11.93;50.01;97201.75;5095655;28;20044;-66
2021/11/18 06:21:57;;;;;;;7.93;4.30;;;;;;;12.49;48.99;97202.53;5095780;28;20024;-66
2021/11/18 06:24:24;;;;;;;6.82;4.22;;;;;;;13.16;47.90;97207.16;5095701;28;20032;-63
2021/11/18 06:26:52;;;;;;;4.97;4.47;;;;;;;13.74;46.63;97211.06;5095612;28;20052;-65
2021/11/18 06:29:20;;;;;;;4.70;4.25;;;;;;;13.97;45.83;97212.75;5095827;28;20028;-64
2021/11/18 06:31:48;;;;;;;5.28;4.20;;;;;;;14.33;44.60;97215.72;5095737;28;20103;-65
2021/11/18 06:34:15;;;;;;;5.13;4.45;;;;;;;14.64;42.47;97211.75;5095596;28;20021;-66
2021/11/18 06:36:40;;;;;;;5.90;4.57;;;;;;;14.70;42.88;97218.53;5095542;28;20081;-64
2021/11/18 06:39:06;;;;;;;6.55;4.78;;;;;;;14.53;43.43;97217.47;5095671;28;20024;-68
2021/11/18 06:41:33;;;;;;;6.13;4.50;;;;;;;14.05;44.84;97215.06;5095510;28;20024;-69
2021/11/18 06:43:59;;;;;;;7.35;4.95;;;;;;;13.66;45.46;97221.06;5094159;28;20032;-62
2021/11/18 06:46:26;;;;;;;6.63;5.45;;;;;;;13.18;45.99;97226.34;5095375;28;20066;-64
2021/11/18 06:48:53;;;;;;;6.60;5.55;;;;;;;12.71;47.11;97223.63;5095289;28;20040;-63
2021/11/18 06:51:22;;;;;;;8.82;6.20;;;;;;;12.37;48.19;97222.16;5094022;28;20470;-65
2021/11/18 06:53:50;;;;;;;77.53;42.33;;;;;;;12.12;49.54;97218.63;5095081;28;20385;-64
2021/11/18 06:56:17;;;;;;;27.08;17.63;;;;;;;12.03;50.18;97223.28;5094464;28;20058;-65
2021/11/18 06:58:43;;;;;;;11.00;9.75;;;;;;;11.63;50.84;97223.69;5095039;28;20062;-63
2021/11/18 07:01:09;;;;;;;11.63;9.68;;;;;;;11.33;52.05;97227.19;5095056;28;20024;-63
2021/11/18 07:03:39;;;;;;;14.65;10.05;;;;;;;11.42;52.49;97223.44;5095005;28;20026;-62
2021/11/18 07:06:12;;;;;;;8.02;7.13;;;;;;;11.17;52.60;97218.91;5094992;28;20039;-67
2021/11/18 07:08:38;;;;;;;9.98;8.75;;;;;;;11.14;52.98;97228.63;5094813;28;20036;-65
2021/11/18 07:11:05;;;;;;;10.32;9.00;;;;;;;10.87;53.64;97227.63;5094992;28;20016;-65
2021/11/18 07:13:32;;;;;;;9.18;8.23;;;;;;;10.76;53.95;97227.06;5094942;28;20030;-65
2021/11/18 07:16:00;;;;;;;10.80;9.68;;;;;;;10.57;54.93;97224.94;5094626;28;20024;-65
2021/11/18 07:18:27;;;;;;;10.90;9.48;;;;;;;10.32;54.79;97224.72;5094750;28;20029;-64
2021/11/18 07:20:53;;;;;;;16.95;11.00;;;;;;;10.17;55.46;97218.97;5094685;28;20046;-63
2021/11/18 07:23:21;;;;;;;12.35;10.82;;;;;;;10.08;56.62;97220.06;5094522;28;20024;-60
2021/11/18 07:25:53;;;;;;;11.65;10.30;;;;;;;9.83;58.02;97215.47;5094634;28;20054;-64
2021/11/18 07:28:20;;;;;;;11.32;9.77;;;;;;;9.83;57.14;97217.22;5094779;28;20020;-64
2021/11/18 07:30:49;;;;;;;11.10;9.45;;;;;;;9.71;57.94;97208.78;5094586;28;20543;-66
2021/11/18 07:33:16;;;;;;;11.60;9.32;;;;;;;9.64;56.82;97208.97;5094591;28;20485;-64
2021/11/18 07:35:42;;;;;;;11.05;9.00;;;;;;;9.58;57.19;97216.03;5094490;28;20427;-66
2021/11/18 07:38:09;;;;;;;12.43;10.02;;;;;;;9.66;56.45;97208.03;5094299;28;20021;-67
2021/11/18 07:40:35;;;;;;;12.40;9.48;;;;;;;9.77;56.09;97204.28;5094367;28;20103;-64
2021/11/18 07:43:08;;;;;;;12.48;9.25;;;;;;;9.92;57.26;97211.78;5094371;28;20469;-67
2021/11/18 07:45:34;;;;;;;13.63;10.20;;;;;;;10.13;55.90;97208.63;5094300;28;20035;-66
2021/11/18 07:48:00;;;;;;;14.52;8.98;;;;;;;10.16;55.83;97211.19;5092922;28;20024;-64
2021/11/18 07:50:26;;;;;;;12.55;9.10;;;;;;;10.16;55.54;97208.56;5094276;28;20031;-65
2021/11/18 07:52:51;;;;;;;14.48;8.70;;;;;;;10.19;54.47;97209.34;5094285;28;20016;-66
2021/11/18 07:55:20;;;;;;;10.27;8.02;;;;;;;10.15;54.12;97207.72;5094087;28;20359;-61
2021/11/18 07:57:49;;;;;;;10.68;7.88;;;;;;;10.35;54.87;97203.72;5093967;28;20077;-66
2021/11/18 08:00:17;;;;;;;11.15;7.95;;;;;;;10.55;54.45;97204.97;5093878;28;20032;-66
2021/11/18 08:02:44;;;;;;;11.13;8.05;;;;;;;10.69;53.24;97210.66;5093886;28;20016;-61
2021/11/18 08:05:11;;;;;;;9.27;8.30;;;;;;;10.85;53.22;97205.88;5093713;28;20020;-66
2021/11/18 08:07:37;;;;;;;7.85;6.90;;;;;;;11.14;51.59;97202.47;5093612;28;20021;-65
2021/11/18 08:10:07;;;;;;;10.02;7.40;;;;;;;11.34;51.92;97199.22;5093917;28;20036;-63
2021/11/18 08:12:36;;;;;;;8.55;7.05;;;;;;;11.94;50.89;97201.72;5093787;28;20032;-62
2021/11/18 08:15:09;;;;;;;9.07;6.97;;;;;;;12.17;50.18;97196.63;5092435;28;20505;-62
2021/11/18 08:17:35;;;;;;;9.18;7.13;;;;;;;12.77;48.92;97191.06;5093622;28;20024;-67
2021/11/18 08:20:01;;;;;;;8.18;6.80;;;;;;;13.29;48.30;97194.38;5093390;28;20046;-66
2021/11/18 08:22:27;;;;;;;9.93;6.47;;;;;;;14.21;45.83;97191.59;5093694;28;20040;-68
2021/11/18 08:24:53;;;;;;;7.93;6.25;;;;;;;14.93;44.08;97196.44;5093496;28;20016;-63
2021/11/18 08:27:19;;;;;;;8.02;6.68;;;;;;;14.99;43.70;97203.25;5093414;28;20119;-65
2021/11/18 08:29:47;;;;;;;10.13;6.85;;;;;;;15.28;43.35;97198.38;5093509;28;20012;-65
2021/11/18 08:32:13;;;;;;;8.30;6.70;;;;;;;15.09;43.75;97194.00;5093562;28;20085;-68
2021/11/18 08:34:39;;;;;;;8.90;6.80;;;;;;;15.13;43.33;97195.56;5093406;28;20394;-64
2021/11/18 08:37:06;;;;;;;7.32;6.60;;;;;;;15.32;43.45;97199.13;5093331;28;20027;-65
2021/11/18 08:39:32;;;;;;;9.23;7.28;;;;;;;15.21;42.96;97191.69;5093328;28;20359;-64
2021/11/18 08:42:01;;;;;;;8.48;7.40;;;;;;;14.74;44.35;97189.34;5093350;28;20027;-65
2021/11/18 08:44:30;;;;;;;10.82;6.47;;;;;;;14.13;44.94;97185.81;5093378;28;20366;-66
2021/11/18 08:46:57;;;;;;;11.32;8.57;;;;;;;14.18;45.10;97186.47;5093291;28;20458;-65
2021/11/18 08:49:23;;;;;;;9.27;7.22;;;;;;;14.05;45.43;97194.03;5093115;28;20024;-63
2021/11/18 08:51:50;;;;;;;10.55;8.10;;;;;;;13.92;45.07;97177.91;5093224;28;20027;-66
2021/11/18 08:54:24;;;;;;;8.50;6.82;;;;;;;13.47;46.09;97184.94;5093028;28;20438;-65
2021/11/18 08:56:52;;;;;;;8.27;6.97;;;;;;;13.42;46.85;97184.28;5093222;28;20060;-68
2021/11/18 08:59:19;;;;;;;10.77;7.45;;;;;;;13.30;46.64;97189.06;5093145;28;20040;-66
2021/11/18 09:01:48;;;;;;;9.45;7.45;;;;;;;13.19;47.09;97189.50;5093019;28;20020;-65
2021/11/18 09:04:17;;;;;;;7.72;6.93;;;;;;;13.00;47.09;97191.94;5093148;28;20016;-68
2021/11/18 09:06:44;;;;;;;11.93;7.80;;;;;;;12.89;46.75;97193.22;5093041;28;20477;-66
2021/11/18 09:09:11;;;;;;;8.95;7.43;;;;;;;12.68;46.42;97187.00;5093026;28;20028;-69
2021/11/18 09:11:38;;;;;;;12.30;8.25;;;;;;;12.47;49.76;97186.00;5093170;28;20030;-66
2021/11/18 09:14:04;;;;;;;8.15;7.03;;;;;;;12.56;49.25;97185.69;5092942;28;20038;-68
2021/11/18 09:16:34;;;;;;;9.10;7.75;;;;;;;12.60;49.21;97187.28;5092908;28;20370;-66
2021/11/18 09:19:01;;;;;;;9.88;7.32;;;;;;;12.76;48.26;97182.31;5095464;28;20119;-63
2021/11/18 09:21:27;;;;;;;10.57;7.88;;;;;;;12.96;47.43;97179.84;5097011;28;20107;-65
2021/11/18 09:23:58;;;;;;;10.23;7.53;;;;;;;12.82;46.86;97189.09;5097049;28;20111;-64
2021/11/18 09:26:28;;;;;;;8.98;8.07;;;;;;;12.74;47.28;97178.03;5096970;28;20024;-68
2021/11/18 09:28:56;;;;;;;8.90;6.82;;;;;;;12.77;48.79;97189.28;5096922;28;20020;-67
2021/11/18 09:31:22;;;;;;;14.20;8.80;;;;;;;12.45;49.19;97186.03;5096908;28;20061;-67
2021/11/18 09:33:50;;;;;;;9.73;7.72;;;;;;;12.44;49.01;97175.59;5096980;28;20038;-66
2021/11/18 09:36:17;;;;;;;11.88;8.65;;;;;;;12.63;48.88;97176.66;5096740;28;20023;-63
2021/11/18 09:38:45;;;;;;;14.57;8.85;;;;;;;12.77;48.79;97168.25;5096696;28;20024;-67
2021/11/18 09:41:13;;;;;;;12.23;8.95;;;;;;;12.79;48.51;97168.22;5096679;28;20422;-68
2021/11/18 09:44:14;;;;;;;9.93;7.90;;;;;;;12.51;48.44;97170.09;5096683;28;20081;-67
2021/11/18 09:47:17;;;;;;;10.38;6.97;;;;;;;12.53;49.41;97161.28;5096542;28;20032;-66
2021/11/18 09:50:11;;;;;;;9.15;7.70;;;;;;;12.60;49.32;97161.03;5096400;28;20059;-65
2021/11/18 09:53:07;;;;;;;9.45;6.95;;;;;;;12.71;48.83;97165.03;5096348;28;20036;-69
2021/11/18 09:55:46;;;;;;;8.93;7.10;;;;;;;12.78;47.42;97166.50;5096661;28;20032;-63
2021/11/18 09:58:43;;;;;;;9.02;7.63;;;;;;;12.89;47.12;97163.50;5096373;28;20214;-65
2021/11/18 10:01:24;;;;;;;9.85;7.68;;;;;;;12.91;46.31;97155.56;5096334;28;20061;-62
2021/11/18 10:04:20;;;;;;;9.80;7.80;;;;;;;12.72;48.06;97149.22;5096108;28;20430;-67
2021/11/18 10:06:53;;;;;;;12.15;8.85;;;;;;;12.72;48.94;97154.47;5096038;28;20067;-65
2021/11/18 10:09:31;;;;;;;10.98;7.90;;;;;;;12.51;50.24;97154.34;5096168;28;20028;-64
2021/11/18 10:12:34;;;;;;;14.13;8.40;;;;;;;12.61;49.41;97152.22;5096080;28;20020;-64
2021/11/18 10:15:04;;;;;;;10.68;7.82;;;;;;;12.60;49.77;97144.41;5096042;28;20055;-69
2021/11/18 10:17:48;;;;;;;10.65;8.23;;;;;;;12.77;48.92;97136.75;5096018;28;20032;-69
2021/11/18 10:20:18;;;;;;;10.77;8.07;;;;;;;12.89;48.76;97129.34;5095612;28;20040;-62
2021/11/18 10:22:51;;;;;;;14.80;9.63;;;;;;;12.86;49.63;97129.47;5095967;28;20508;-64
2021/11/18 10:25:23;;;;;;;10.52;8.07;;;;;;;13.04;48.24;97132.31;5095824;28;20028;-65
2021/11/18 10:28:21;;;;;;;9.98;8.00;;;;;;;13.10;48.96;97124.19;5095698;28;20474;-64
2021/11/18 10:31:24;;;;;;;9.95;7.90;;;;;;;13.23;47.44;97121.94;5095379;28;20031;-64
2021/11/18 10:33:52;;;;;;;10.90;8.20;;;;;;;13.06;48.46;97119.97;5088500;28;20490;-64
2021/11/18 10:36:51;;;;;;;8.35;7.40;;;;;;;12.94;48.05;97119.53;5095689;28;20035;-67
2021/11/18 10:39:44;;;;;;;8.65;7.68;;;;;;;13.05;49.19;97119.13;5095633;28;20028;-64
2021/11/18 10:42:36;;;;;;;12.55;8.02;;;;;;;13.09;47.06;97119.84;5095595;28;20036;-67
2021/11/18 10:45:09;;;;;;;10.68;7.00;;;;;;;13.16;47.38;97110.81;5076514;28;20040;-65
2021/11/18 10:47:41;;;;;;;10.77;7.00;;;;;;;13.27;47.55;97108.63;5093255;28;20044;-64
2021/11/18 10:50:33;;;;;;;9.85;7.85;;;;;;;13.36;46.72;97109.16;5093454;28;20040;-65
2021/11/18 10:53:27;;;;;;;9.43;7.75;;;;;;;13.34;48.32;97114.47;5093182;28;20063;-65
2021/11/18 10:56:18;;;;;;;10.23;7.75;;;;;;;13.20;48.32;97111.53;5086998;28;20412;-67
2021/11/18 10:58:49;;;;;;;11.05;7.97;;;;;;;13.23;48.85;97106.16;5093153;28;20032;-65
2021/11/18 11:01:24;;;;;;;11.73;8.27;;;;;;;13.30;48.77;97106.78;5093076;28;20157;-67
2021/11/18 11:03:55;;;;;;;10.75;7.55;;;;;;;13.35;48.47;97094.31;5092917;28;20119;-66
2021/11/18 11:06:23;;;;;;;11.05;7.82;;;;;;;13.30;48.89;97086.59;5092723;28;20518;-66
2021/11/18 11:09:10;;;;;;;8.55;7.65;;;;;;;13.55;48.35;97090.91;5092902;28;20052;-66
2021/11/18 11:11:57;;;;;;;8.85;7.32;;;;;;;13.63;46.07;97091.44;5092983;28;20036;-64
2021/11/18 11:14:56;;;;;;;12.05;7.60;;;;;;;13.66;46.87;97092.25;5092800;28;20064;-64
2021/11/18 11:17:40;;;;;;;9.77;6.80;;;;;;;13.54;46.23;97089.19;5094810;28;20086;-68
2021/11/18 11:20:33;;;;;;;9.13;7.03;;;;;;;13.50;46.46;97080.59;5094598;28;20055;-61
2021/11/18 11:23:21;;;;;;;10.48;8.05;;;;;;;13.60;48.04;97078.44;5094829;28;20051;-66
2021/11/18 11:26:18;;;;;;;10.38;8.15;;;;;;;13.68;47.21;97075.47;5094563;28;20468;-64
2021/11/18 11:29:06;;;;;;;10.00;7.85;;;;;;;13.68;47.31;97070.22;5094693;28;20036;-65
2021/11/18 11:31:45;;;;;;;9.52;7.72;;;;;;;13.49;46.75;97072.75;5094513;28;20389;-62
2021/11/18 11:34:50;;;;;;;9.48;7.78;;;;;;;13.47;47.59;97067.53;5094623;28;20032;-66
2021/11/18 11:37:34;;;;;;;10.88;8.45;;;;;;;13.42;49.24;97058.97;5094462;28;20155;-65
2021/11/18 11:40:28;;;;;;;11.15;8.05;;;;;;;13.47;47.21;97059.66;5094341;28;20038;-66
2021/11/18 11:43:15;;;;;;;10.07;7.00;;;;;;;13.59;47.17;97054.81;5088454;28;20036;-66